sensor_id;sensor_type;location;lat;lon;timestamp;P1;durP1;ratioP1;P2;durP2;ratioP2
75616;SDS011;64200;55.426;37.758;2023-08-20T00:01:58;25.13;;;18.40;;
75616;SDS011;64200;55.426;37.758;2023-08-20T00:07:02;21.75;;;17.52;;
75616;SDS011;64200;55.426;37.758;2023-08-20T00:12:03;22.65;;;18.00;;
75616;SDS011;64200;55.426;37.758;2023-08-20T00:17:05;26.00;;;18.00;;
75616;SDS011;64200;55.426;37.758;2023-08-20T00:22:06;23.65;;;17.77;;
75616;SDS011;64200;55.426;37.758;2023-08-20T00:27:07;23.23;;;18.02;;
75616;SDS011;64200;55.426;37.758;2023-08-20T00:32:07;27.08;;;18.58;;
75616;SDS011;64200;55.426;37.758;2023-08-20T00:37:08;25.05;;;18.80;;
75616;SDS011;64200;55.426;37.758;2023-08-20T00:42:08;24.23;;;17.75;;
75616;SDS011;64200;55.426;37.758;2023-08-20T00:47:09;24.58;;;18.92;;
75616;SDS011;64200;55.426;37.758;2023-08-20T00:52:10;25.35;;;19.60;;
75616;SDS011;64200;55.426;37.758;2023-08-20T00:57:14;26.42;;;19.90;;
75616;SDS011;64200;55.426;37.758;2023-08-20T01:02:15;23.75;;;17.92;;
75616;SDS011;64200;55.426;37.758;2023-08-20T01:07:21;25.25;;;20.13;;
75616;SDS011;64200;55.426;37.758;2023-08-20T01:12:31;26.40;;;19.88;;
75616;SDS011;64200;55.426;37.758;2023-08-20T01:17:34;30.35;;;19.88;;
75616;SDS011;64200;55.426;37.758;2023-08-20T01:33:28;26.75;;;21.00;;
75616;SDS011;64200;55.426;37.758;2023-08-20T01:38:30;29.23;;;20.25;;
75616;SDS011;64200;55.426;37.758;2023-08-20T01:43:31;27.97;;;22.43;;
75616;SDS011;64200;55.426;37.758;2023-08-20T01:48:31;26.53;;;20.17;;
75616;SDS011;64200;55.426;37.758;2023-08-20T01:53:32;26.98;;;20.10;;
75616;SDS011;64200;55.426;37.758;2023-08-20T01:58:32;22.42;;;18.02;;
75616;SDS011;64200;55.426;37.758;2023-08-20T02:03:35;20.63;;;15.90;;
75616;SDS011;64200;55.426;37.758;2023-08-20T02:08:37;19.33;;;14.68;;
75616;SDS011;64200;55.426;37.758;2023-08-20T02:13:38;21.10;;;15.67;;
75616;SDS011;64200;55.426;37.758;2023-08-20T02:18:38;22.30;;;16.52;;
75616;SDS011;64200;55.426;37.758;2023-08-20T02:23:39;21.70;;;16.53;;
75616;SDS011;64200;55.426;37.758;2023-08-20T02:28:39;24.50;;;19.00;;
75616;SDS011;64200;55.426;37.758;2023-08-20T02:33:40;22.17;;;16.43;;
75616;SDS011;64200;55.426;37.758;2023-08-20T02:38:40;23.23;;;17.47;;
75616;SDS011;64200;55.426;37.758;2023-08-20T02:43:41;19.63;;;17.10;;
75616;SDS011;64200;55.426;37.758;2023-08-20T02:48:41;23.07;;;17.07;;
75616;SDS011;64200;55.426;37.758;2023-08-20T02:53:42;22.00;;;15.60;;
75616;SDS011;64200;55.426;37.758;2023-08-20T02:58:43;17.60;;;15.07;;
75616;SDS011;64200;55.426;37.758;2023-08-20T03:03:43;20.00;;;13.43;;
75616;SDS011;64200;55.426;37.758;2023-08-20T03:08:45;18.10;;;14.03;;
75616;SDS011;64200;55.426;37.758;2023-08-20T03:13:45;17.33;;;13.90;;
75616;SDS011;64200;55.426;37.758;2023-08-20T03:18:46;19.10;;;13.60;;
75616;SDS011;64200;55.426;37.758;2023-08-20T03:23:46;19.83;;;15.40;;
75616;SDS011;64200;55.426;37.758;2023-08-20T03:28:47;14.93;;;12.47;;
75616;SDS011;64200;55.426;37.758;2023-08-20T03:33:48;16.25;;;11.70;;
75616;SDS011;64200;55.426;37.758;2023-08-20T03:38:48;15.18;;;11.40;;
75616;SDS011;64200;55.426;37.758;2023-08-20T03:43:49;12.43;;;10.97;;
75616;SDS011;64200;55.426;37.758;2023-08-20T03:48:49;13.40;;;10.90;;
75616;SDS011;64200;55.426;37.758;2023-08-20T03:53:50;11.07;;;8.50;;
75616;SDS011;64200;55.426;37.758;2023-08-20T03:58:50;8.80;;;6.90;;
75616;SDS011;64200;55.426;37.758;2023-08-20T04:03:51;9.30;;;6.18;;
75616;SDS011;64200;55.426;37.758;2023-08-20T04:08:51;5.83;;;4.80;;
75616;SDS011;64200;55.426;37.758;2023-08-20T04:13:52;8.03;;;4.57;;
75616;SDS011;64200;55.426;37.758;2023-08-20T04:18:52;5.23;;;3.53;;
75616;SDS011;64200;55.426;37.758;2023-08-20T04:23:53;10.47;;;6.20;;
75616;SDS011;64200;55.426;37.758;2023-08-20T04:28:53;10.83;;;7.57;;
75616;SDS011;64200;55.426;37.758;2023-08-20T04:33:53;14.60;;;8.50;;
75616;SDS011;64200;55.426;37.758;2023-08-20T04:38:54;9.25;;;6.90;;
75616;SDS011;64200;55.426;37.758;2023-08-20T04:43:55;10.07;;;6.63;;
75616;SDS011;64200;55.426;37.758;2023-08-20T04:48:55;10.57;;;7.18;;
75616;SDS011;64200;55.426;37.758;2023-08-20T04:53:56;9.17;;;6.73;;
75616;SDS011;64200;55.426;37.758;2023-08-20T04:58:56;6.93;;;5.60;;
75616;SDS011;64200;55.426;37.758;2023-08-20T05:03:57;8.13;;;5.80;;
75616;SDS011;64200;55.426;37.758;2023-08-20T05:08:57;6.57;;;5.00;;
75616;SDS011;64200;55.426;37.758;2023-08-20T05:13:58;7.33;;;5.77;;
75616;SDS011;64200;55.426;37.758;2023-08-20T05:18:58;6.40;;;5.00;;
75616;SDS011;64200;55.426;37.758;2023-08-20T05:23:59;7.23;;;6.07;;
75616;SDS011;64200;55.426;37.758;2023-08-20T05:28:59;8.53;;;6.30;;
75616;SDS011;64200;55.426;37.758;2023-08-20T05:34:00;10.15;;;6.88;;
75616;SDS011;64200;55.426;37.758;2023-08-20T05:39:00;7.20;;;5.60;;
75616;SDS011;64200;55.426;37.758;2023-08-20T05:44:01;6.97;;;6.23;;
75616;SDS011;64200;55.426;37.758;2023-08-20T05:49:01;8.40;;;6.25;;
75616;SDS011;64200;55.426;37.758;2023-08-20T05:54:03;7.78;;;6.05;;
75616;SDS011;64200;55.426;37.758;2023-08-20T05:59:04;7.30;;;5.80;;
75616;SDS011;64200;55.426;37.758;2023-08-20T06:04:04;7.50;;;6.17;;
75616;SDS011;64200;55.426;37.758;2023-08-20T06:09:05;6.18;;;5.47;;
75616;SDS011;64200;55.426;37.758;2023-08-20T06:14:06;6.70;;;6.10;;
75616;SDS011;64200;55.426;37.758;2023-08-20T06:19:06;9.80;;;6.47;;
75616;SDS011;64200;55.426;37.758;2023-08-20T06:24:07;7.10;;;6.40;;
75616;SDS011;64200;55.426;37.758;2023-08-20T06:29:08;6.32;;;5.72;;
75616;SDS011;64200;55.426;37.758;2023-08-20T06:34:09;8.10;;;7.07;;
75616;SDS011;64200;55.426;37.758;2023-08-20T06:39:09;9.82;;;8.55;;
75616;SDS011;64200;55.426;37.758;2023-08-20T06:44:11;9.43;;;8.40;;
75616;SDS011;64200;55.426;37.758;2023-08-20T06:49:11;11.03;;;8.93;;
75616;SDS011;64200;55.426;37.758;2023-08-20T06:54:11;9.77;;;8.00;;
75616;SDS011;64200;55.426;37.758;2023-08-20T06:59:12;8.55;;;7.30;;
75616;SDS011;64200;55.426;37.758;2023-08-20T07:04:13;10.35;;;7.03;;
75616;SDS011;64200;55.426;37.758;2023-08-20T07:09:13;13.48;;;8.10;;
75616;SDS011;64200;55.426;37.758;2023-08-20T07:14:14;7.83;;;6.10;;
75616;SDS011;64200;55.426;37.758;2023-08-20T07:19:14;6.93;;;5.03;;
75616;SDS011;64200;55.426;37.758;2023-08-20T07:24:14;8.07;;;6.13;;
75616;SDS011;64200;55.426;37.758;2023-08-20T07:29:15;7.10;;;5.67;;
75616;SDS011;64200;55.426;37.758;2023-08-20T07:34:15;7.50;;;6.23;;
75616;SDS011;64200;55.426;37.758;2023-08-20T07:39:16;8.93;;;5.45;;
75616;SDS011;64200;55.426;37.758;2023-08-20T07:44:16;7.13;;;6.07;;
75616;SDS011;64200;55.426;37.758;2023-08-20T07:49:17;8.00;;;6.10;;
75616;SDS011;64200;55.426;37.758;2023-08-20T07:54:17;5.97;;;5.13;;
75616;SDS011;64200;55.426;37.758;2023-08-20T07:59:18;9.10;;;5.95;;
75616;SDS011;64200;55.426;37.758;2023-08-20T08:04:19;6.73;;;5.60;;
75616;SDS011;64200;55.426;37.758;2023-08-20T08:09:20;6.70;;;5.10;;
75616;SDS011;64200;55.426;37.758;2023-08-20T08:14:26;8.48;;;5.25;;
75616;SDS011;64200;55.426;37.758;2023-08-20T08:19:26;7.10;;;6.00;;
75616;SDS011;64200;55.426;37.758;2023-08-20T08:24:27;7.50;;;5.25;;
75616;SDS011;64200;55.426;37.758;2023-08-20T08:29:27;6.17;;;5.03;;
75616;SDS011;64200;55.426;37.758;2023-08-20T08:34:28;5.93;;;5.03;;
75616;SDS011;64200;55.426;37.758;2023-08-20T08:39:28;7.53;;;5.78;;
75616;SDS011;64200;55.426;37.758;2023-08-20T08:44:29;10.02;;;5.88;;
75616;SDS011;64200;55.426;37.758;2023-08-20T08:49:33;10.32;;;6.65;;
75616;SDS011;64200;55.426;37.758;2023-08-20T08:54:34;6.00;;;5.40;;
75616;SDS011;64200;55.426;37.758;2023-08-20T08:59:36;6.10;;;4.97;;
75616;SDS011;64200;55.426;37.758;2023-08-20T09:04:40;6.00;;;5.10;;
75616;SDS011;64200;55.426;37.758;2023-08-20T09:09:42;5.55;;;4.70;;
75616;SDS011;64200;55.426;37.758;2023-08-20T09:14:45;7.88;;;6.22;;
75616;SDS011;64200;55.426;37.758;2023-08-20T09:19:47;7.20;;;5.75;;
75616;SDS011;64200;55.426;37.758;2023-08-20T09:24:54;9.23;;;6.40;;
75616;SDS011;64200;55.426;37.758;2023-08-20T09:29:56;5.95;;;5.28;;
75616;SDS011;64200;55.426;37.758;2023-08-20T09:34:59;8.68;;;5.00;;
75616;SDS011;64200;55.426;37.758;2023-08-20T09:40:00;5.78;;;5.28;;
75616;SDS011;64200;55.426;37.758;2023-08-20T09:45:02;8.32;;;5.70;;
75616;SDS011;64200;55.426;37.758;2023-08-20T09:50:05;7.20;;;5.43;;
75616;SDS011;64200;55.426;37.758;2023-08-20T09:55:11;9.15;;;6.32;;
75616;SDS011;64200;55.426;37.758;2023-08-20T10:00:16;6.10;;;5.50;;
75616;SDS011;64200;55.426;37.758;2023-08-20T10:05:16;6.18;;;5.55;;
75616;SDS011;64200;55.426;37.758;2023-08-20T10:10:17;6.72;;;5.15;;
75616;SDS011;64200;55.426;37.758;2023-08-20T10:15:18;6.13;;;5.40;;
75616;SDS011;64200;55.426;37.758;2023-08-20T10:20:18;7.57;;;6.03;;
75616;SDS011;64200;55.426;37.758;2023-08-20T10:25:25;6.32;;;5.72;;
75616;SDS011;64200;55.426;37.758;2023-08-20T10:30:26;7.15;;;5.72;;
75616;SDS011;64200;55.426;37.758;2023-08-20T10:35:28;6.38;;;5.78;;
75616;SDS011;64200;55.426;37.758;2023-08-20T10:40:47;7.32;;;5.50;;
75616;SDS011;64200;55.426;37.758;2023-08-20T10:51:26;10.55;;;6.93;;
75616;SDS011;64200;55.426;37.758;2023-08-20T10:56:47;6.97;;;4.93;;
75616;SDS011;64200;55.426;37.758;2023-08-20T11:01:49;7.85;;;6.10;;
75616;SDS011;64200;55.426;37.758;2023-08-20T11:06:55;5.82;;;5.28;;
75616;SDS011;64200;55.426;37.758;2023-08-20T11:11:57;6.95;;;6.15;;
75616;SDS011;64200;55.426;37.758;2023-08-20T11:16:58;8.43;;;5.43;;
75616;SDS011;64200;55.426;37.758;2023-08-20T11:21:59;12.10;;;8.30;;
75616;SDS011;64200;55.426;37.758;2023-08-20T11:27:00;7.70;;;6.90;;
75616;SDS011;64200;55.426;37.758;2023-08-20T11:32:00;9.57;;;8.60;;
75616;SDS011;64200;55.426;37.758;2023-08-20T11:37:03;7.40;;;6.38;;
75616;SDS011;64200;55.426;37.758;2023-08-20T11:42:05;9.05;;;6.90;;
75616;SDS011;64200;55.426;37.758;2023-08-20T11:47:14;10.60;;;7.10;;
75616;SDS011;64200;55.426;37.758;2023-08-20T11:52:18;3.17;;;2.17;;
75616;SDS011;64200;55.426;37.758;2023-08-20T11:57:20;3.13;;;2.10;;
75616;SDS011;64200;55.426;37.758;2023-08-20T12:02:25;4.88;;;3.78;;
75616;SDS011;64200;55.426;37.758;2023-08-20T12:07:27;6.68;;;3.63;;
75616;SDS011;64200;55.426;37.758;2023-08-20T12:12:28;2.97;;;2.40;;
75616;SDS011;64200;55.426;37.758;2023-08-20T12:17:28;7.50;;;2.50;;
75616;SDS011;64200;55.426;37.758;2023-08-20T12:22:29;2.20;;;1.80;;
75616;SDS011;64200;55.426;37.758;2023-08-20T12:27:29;2.53;;;1.63;;
75616;SDS011;64200;55.426;37.758;2023-08-20T12:32:30;3.83;;;1.88;;
75616;SDS011;64200;55.426;37.758;2023-08-20T12:37:30;3.57;;;1.50;;
75616;SDS011;64200;55.426;37.758;2023-08-20T12:42:30;5.80;;;2.87;;
75616;SDS011;64200;55.426;37.758;2023-08-20T12:47:31;3.37;;;2.37;;
75616;SDS011;64200;55.426;37.758;2023-08-20T12:52:32;6.00;;;2.75;;
75616;SDS011;64200;55.426;37.758;2023-08-20T12:57:34;2.95;;;2.33;;
75616;SDS011;64200;55.426;37.758;2023-08-20T13:02:36;4.18;;;2.67;;
75616;SDS011;64200;55.426;37.758;2023-08-20T13:07:36;6.68;;;3.67;;
75616;SDS011;64200;55.426;37.758;2023-08-20T13:12:37;4.45;;;3.17;;
75616;SDS011;64200;55.426;37.758;2023-08-20T13:17:41;3.83;;;2.80;;
75616;SDS011;64200;55.426;37.758;2023-08-20T13:22:41;4.82;;;3.20;;
75616;SDS011;64200;55.426;37.758;2023-08-20T13:27:43;3.17;;;2.88;;
75616;SDS011;64200;55.426;37.758;2023-08-20T13:32:43;4.88;;;3.08;;
75616;SDS011;64200;55.426;37.758;2023-08-20T13:37:44;6.07;;;3.40;;
75616;SDS011;64200;55.426;37.758;2023-08-20T13:42:45;5.18;;;3.30;;
75616;SDS011;64200;55.426;37.758;2023-08-20T13:47:46;4.63;;;3.20;;
75616;SDS011;64200;55.426;37.758;2023-08-20T13:52:46;4.93;;;3.08;;
75616;SDS011;64200;55.426;37.758;2023-08-20T13:57:47;6.85;;;3.55;;
75616;SDS011;64200;55.426;37.758;2023-08-20T14:02:47;5.10;;;3.67;;
75616;SDS011;64200;55.426;37.758;2023-08-20T14:07:48;3.70;;;3.40;;
75616;SDS011;64200;55.426;37.758;2023-08-20T14:12:48;6.37;;;2.80;;
75616;SDS011;64200;55.426;37.758;2023-08-20T14:17:49;5.13;;;3.50;;
75616;SDS011;64200;55.426;37.758;2023-08-20T14:22:49;5.28;;;3.60;;
75616;SDS011;64200;55.426;37.758;2023-08-20T14:27:50;5.30;;;3.95;;
75616;SDS011;64200;55.426;37.758;2023-08-20T14:32:51;4.37;;;3.47;;
75616;SDS011;64200;55.426;37.758;2023-08-20T14:37:53;6.07;;;4.75;;
75616;SDS011;64200;55.426;37.758;2023-08-20T14:42:54;6.25;;;4.43;;
75616;SDS011;64200;55.426;37.758;2023-08-20T14:47:55;5.45;;;4.00;;
75616;SDS011;64200;55.426;37.758;2023-08-20T14:52:56;6.45;;;4.60;;
75616;SDS011;64200;55.426;37.758;2023-08-20T14:57:56;5.82;;;3.53;;
75616;SDS011;64200;55.426;37.758;2023-08-20T15:02:57;9.70;;;4.78;;
75616;SDS011;64200;55.426;37.758;2023-08-20T15:07:57;6.03;;;4.50;;
75616;SDS011;64200;55.426;37.758;2023-08-20T15:12:58;7.45;;;4.85;;
75616;SDS011;64200;55.426;37.758;2023-08-20T15:17:58;5.97;;;4.40;;
75616;SDS011;64200;55.426;37.758;2023-08-20T15:22:59;7.23;;;4.73;;
75616;SDS011;64200;55.426;37.758;2023-08-20T15:27:59;5.33;;;4.27;;
75616;SDS011;64200;55.426;37.758;2023-08-20T15:33:00;6.50;;;4.35;;
75616;SDS011;64200;55.426;37.758;2023-08-20T15:38:00;5.47;;;4.20;;
75616;SDS011;64200;55.426;37.758;2023-08-20T15:43:02;6.40;;;4.60;;
75616;SDS011;64200;55.426;37.758;2023-08-20T15:48:03;5.95;;;4.68;;
75616;SDS011;64200;55.426;37.758;2023-08-20T15:53:04;8.02;;;5.28;;
75616;SDS011;64200;55.426;37.758;2023-08-20T15:58:04;7.60;;;4.90;;
75616;SDS011;64200;55.426;37.758;2023-08-20T16:03:05;6.40;;;4.82;;
75616;SDS011;64200;55.426;37.758;2023-08-20T16:08:05;7.78;;;4.72;;
75616;SDS011;64200;55.426;37.758;2023-08-20T16:13:06;7.70;;;4.27;;
75616;SDS011;64200;55.426;37.758;2023-08-20T16:18:06;12.43;;;5.57;;
75616;SDS011;64200;55.426;37.758;2023-08-20T16:23:07;6.30;;;4.93;;
75616;SDS011;64200;55.426;37.758;2023-08-20T16:28:08;8.20;;;5.40;;
75616;SDS011;64200;55.426;37.758;2023-08-20T16:33:12;5.70;;;4.80;;
75616;SDS011;64200;55.426;37.758;2023-08-20T16:38:12;8.00;;;6.03;;
75616;SDS011;64200;55.426;37.758;2023-08-20T16:43:13;8.43;;;6.25;;
75616;SDS011;64200;55.426;37.758;2023-08-20T16:48:14;9.18;;;5.32;;
75616;SDS011;64200;55.426;37.758;2023-08-20T16:53:15;6.90;;;5.80;;
75616;SDS011;64200;55.426;37.758;2023-08-20T16:58:16;11.50;;;7.05;;
75616;SDS011;64200;55.426;37.758;2023-08-20T17:03:16;11.27;;;7.07;;
75616;SDS011;64200;55.426;37.758;2023-08-20T17:08:17;11.43;;;6.63;;
75616;SDS011;64200;55.426;37.758;2023-08-20T17:13:17;8.30;;;6.40;;
75616;SDS011;64200;55.426;37.758;2023-08-20T17:18:18;8.60;;;7.45;;
75616;SDS011;64200;55.426;37.758;2023-08-20T17:23:19;9.37;;;7.50;;
75616;SDS011;64200;55.426;37.758;2023-08-20T17:28:19;30.70;;;20.67;;
75616;SDS011;64200;55.426;37.758;2023-08-20T17:33:20;19.98;;;16.73;;
75616;SDS011;64200;55.426;37.758;2023-08-20T17:38:20;13.52;;;9.18;;
75616;SDS011;64200;55.426;37.758;2023-08-20T17:43:23;11.52;;;8.70;;
75616;SDS011;64200;55.426;37.758;2023-08-20T17:48:24;11.70;;;9.40;;
75616;SDS011;64200;55.426;37.758;2023-08-20T17:53:25;13.33;;;10.30;;
75616;SDS011;64200;55.426;37.758;2023-08-20T17:58:26;17.42;;;11.30;;
75616;SDS011;64200;55.426;37.758;2023-08-20T18:03:26;15.82;;;11.48;;
75616;SDS011;64200;55.426;37.758;2023-08-20T18:08:27;14.57;;;9.60;;
75616;SDS011;64200;55.426;37.758;2023-08-20T18:13:28;16.52;;;11.15;;
75616;SDS011;64200;55.426;37.758;2023-08-20T18:18:28;16.30;;;9.50;;
75616;SDS011;64200;55.426;37.758;2023-08-20T18:23:29;18.80;;;9.20;;
75616;SDS011;64200;55.426;37.758;2023-08-20T18:28:30;12.00;;;8.52;;
75616;SDS011;64200;55.426;37.758;2023-08-20T18:33:31;13.37;;;7.27;;
75616;SDS011;64200;55.426;37.758;2023-08-20T18:43:32;14.67;;;7.43;;
75616;SDS011;64200;55.426;37.758;2023-08-20T18:48:33;11.05;;;7.78;;
75616;SDS011;64200;55.426;37.758;2023-08-20T18:53:35;8.40;;;6.57;;
75616;SDS011;64200;55.426;37.758;2023-08-20T18:58:36;7.90;;;5.55;;
75616;SDS011;64200;55.426;37.758;2023-08-20T19:03:36;8.87;;;5.43;;
75616;SDS011;64200;55.426;37.758;2023-08-20T19:08:37;8.77;;;4.53;;
75616;SDS011;64200;55.426;37.758;2023-08-20T19:13:38;8.60;;;5.10;;
75616;SDS011;64200;55.426;37.758;2023-08-20T19:18:38;7.40;;;5.60;;
75616;SDS011;64200;55.426;37.758;2023-08-20T19:23:38;9.53;;;4.90;;
75616;SDS011;64200;55.426;37.758;2023-08-20T19:28:39;8.87;;;5.17;;
75616;SDS011;64200;55.426;37.758;2023-08-20T19:33:40;8.27;;;5.20;;
75616;SDS011;64200;55.426;37.758;2023-08-20T19:38:41;7.97;;;5.75;;
75616;SDS011;64200;55.426;37.758;2023-08-20T19:43:42;8.93;;;6.45;;
75616;SDS011;64200;55.426;37.758;2023-08-20T19:48:42;9.70;;;7.38;;
75616;SDS011;64200;55.426;37.758;2023-08-20T19:53:43;9.07;;;8.10;;
75616;SDS011;64200;55.426;37.758;2023-08-20T19:58:44;7.55;;;5.97;;
75616;SDS011;64200;55.426;37.758;2023-08-20T20:03:45;9.85;;;4.80;;
75616;SDS011;64200;55.426;37.758;2023-08-20T20:08:45;4.53;;;3.38;;
75616;SDS011;64200;55.426;37.758;2023-08-20T20:13:46;5.93;;;3.67;;
75616;SDS011;64200;55.426;37.758;2023-08-20T20:18:46;13.20;;;4.18;;
75616;SDS011;64200;55.426;37.758;2023-08-20T20:23:47;3.92;;;3.53;;
75616;SDS011;64200;55.426;37.758;2023-08-20T20:28:48;4.25;;;3.67;;
75616;SDS011;64200;55.426;37.758;2023-08-20T20:33:48;3.10;;;2.70;;
75616;SDS011;64200;55.426;37.758;2023-08-20T20:38:49;3.80;;;3.27;;
75616;SDS011;64200;55.426;37.758;2023-08-20T20:43:49;3.77;;;3.37;;
75616;SDS011;64200;55.426;37.758;2023-08-20T20:48:50;4.97;;;3.63;;
75616;SDS011;64200;55.426;37.758;2023-08-20T20:53:51;3.23;;;2.93;;
75616;SDS011;64200;55.426;37.758;2023-08-20T20:58:52;4.47;;;3.65;;
75616;SDS011;64200;55.426;37.758;2023-08-20T21:03:53;5.65;;;3.63;;
75616;SDS011;64200;55.426;37.758;2023-08-20T21:08:54;4.78;;;3.65;;
75616;SDS011;64200;55.426;37.758;2023-08-20T21:13:56;4.75;;;3.50;;
75616;SDS011;64200;55.426;37.758;2023-08-20T21:18:56;5.10;;;3.40;;
75616;SDS011;64200;55.426;37.758;2023-08-20T21:23:57;6.15;;;3.25;;
75616;SDS011;64200;55.426;37.758;2023-08-20T21:28:58;3.05;;;2.75;;
75616;SDS011;64200;55.426;37.758;2023-08-20T21:33:59;4.97;;;2.30;;
75616;SDS011;64200;55.426;37.758;2023-08-20T21:38:59;3.50;;;1.85;;
75616;SDS011;64200;55.426;37.758;2023-08-20T21:44:00;4.07;;;2.20;;
75616;SDS011;64200;55.426;37.758;2023-08-20T21:49:00;3.22;;;2.10;;
75616;SDS011;64200;55.426;37.758;2023-08-20T21:54:01;3.17;;;2.10;;
75616;SDS011;64200;55.426;37.758;2023-08-20T21:59:02;3.28;;;1.80;;
75616;SDS011;64200;55.426;37.758;2023-08-20T22:04:03;2.55;;;1.90;;
75616;SDS011;64200;55.426;37.758;2023-08-20T22:09:03;2.22;;;1.60;;
75616;SDS011;64200;55.426;37.758;2023-08-20T22:14:04;1.60;;;1.50;;
75616;SDS011;64200;55.426;37.758;2023-08-20T22:19:05;1.50;;;1.40;;
75616;SDS011;64200;55.426;37.758;2023-08-20T22:24:05;1.55;;;1.10;;
75616;SDS011;64200;55.426;37.758;2023-08-20T22:29:06;2.85;;;1.10;;
75616;SDS011;64200;55.426;37.758;2023-08-20T22:34:07;1.80;;;1.10;;
75616;SDS011;64200;55.426;37.758;2023-08-20T22:39:07;4.43;;;1.52;;
75616;SDS011;64200;55.426;37.758;2023-08-20T22:44:08;2.08;;;1.70;;
75616;SDS011;64200;55.426;37.758;2023-08-20T22:49:09;1.60;;;1.45;;
75616;SDS011;64200;55.426;37.758;2023-08-20T22:54:09;2.77;;;1.53;;
75616;SDS011;64200;55.426;37.758;2023-08-20T22:59:10;1.90;;;1.40;;
75616;SDS011;64200;55.426;37.758;2023-08-20T23:04:15;3.75;;;1.70;;
75616;SDS011;64200;55.426;37.758;2023-08-20T23:09:15;2.17;;;1.25;;
75616;SDS011;64200;55.426;37.758;2023-08-20T23:14:16;1.50;;;1.40;;
75616;SDS011;64200;55.426;37.758;2023-08-20T23:19:16;2.47;;;1.03;;
75616;SDS011;64200;55.426;37.758;2023-08-20T23:24:17;2.13;;;1.10;;
75616;SDS011;64200;55.426;37.758;2023-08-20T23:29:17;1.50;;;1.10;;
75616;SDS011;64200;55.426;37.758;2023-08-20T23:34:18;1.02;;;0.90;;
75616;SDS011;64200;55.426;37.758;2023-08-20T23:39:18;0.77;;;0.77;;
75616;SDS011;64200;55.426;37.758;2023-08-20T23:44:19;4.03;;;1.03;;
75616;SDS011;64200;55.426;37.758;2023-08-20T23:49:19;0.80;;;0.70;;
75616;SDS011;64200;55.426;37.758;2023-08-20T23:54:20;1.20;;;1.00;;
75616;SDS011;64200;55.426;37.758;2023-08-20T23:59:20;1.35;;;1.10;;
